sensor_id;sensor_type;location;lat;lon;timestamp;pressure;altitude;pressure_sealevel;temperature;humidity
48862;BME280;34681;49.188;-0.374;2022-11-15T00:01:46;100547.06;;;12.93;68.91
48862;BME280;34681;49.188;-0.374;2022-11-15T00:04:12;100553.03;;;12.89;68.72
48862;BME280;34681;49.188;-0.374;2022-11-15T00:06:37;100540.50;;;12.86;68.96
48862;BME280;34681;49.188;-0.374;2022-11-15T00:09:03;100544.94;;;12.79;68.88
48862;BME280;34681;49.188;-0.374;2022-11-15T00:11:28;100529.34;;;12.88;68.68
48862;BME280;34681;49.188;-0.374;2022-11-15T00:13:55;100524.47;;;12.74;68.89
48862;BME280;34681;49.188;-0.374;2022-11-15T00:16:21;100528.00;;;12.92;68.29
48862;BME280;34681;49.188;-0.374;2022-11-15T00:18:46;100529.38;;;12.96;68.24
48862;BME280;34681;49.188;-0.374;2022-11-15T00:21:15;100519.63;;;13.02;68.29
48862;BME280;34681;49.188;-0.374;2022-11-15T00:23:41;100514.72;;;12.79;68.82
48862;BME280;34681;49.188;-0.374;2022-11-15T00:26:11;100505.25;;;12.65;69.10
48862;BME280;34681;49.188;-0.374;2022-11-15T00:28:37;100497.75;;;12.76;68.61
48862;BME280;34681;49.188;-0.374;2022-11-15T00:31:04;100490.19;;;12.78;68.76
48862;BME280;34681;49.188;-0.374;2022-11-15T00:33:29;100487.91;;;12.65;68.51
48862;BME280;34681;49.188;-0.374;2022-11-15T00:36:03;100481.22;;;12.59;69.08
48862;BME280;34681;49.188;-0.374;2022-11-15T00:38:33;100469.59;;;12.74;68.35
48862;BME280;34681;49.188;-0.374;2022-11-15T00:40:59;100467.34;;;12.69;68.21
48862;BME280;34681;49.188;-0.374;2022-11-15T00:43:24;100458.94;;;12.62;68.54
48862;BME280;34681;49.188;-0.374;2022-11-15T00:45:49;100448.28;;;12.59;68.41
48862;BME280;34681;49.188;-0.374;2022-11-15T00:48:15;100446.34;;;12.44;68.88
48862;BME280;34681;49.188;-0.374;2022-11-15T00:50:40;100442.41;;;12.46;68.99
48862;BME280;34681;49.188;-0.374;2022-11-15T00:53:06;100431.91;;;12.33;69.14
48862;BME280;34681;49.188;-0.374;2022-11-15T00:55:31;100428.41;;;12.23;69.17
48862;BME280;34681;49.188;-0.374;2022-11-15T00:57:56;100418.00;;;12.27;69.23
48862;BME280;34681;49.188;-0.374;2022-11-15T01:00:22;100416.34;;;12.08;69.59
48862;BME280;34681;49.188;-0.374;2022-11-15T01:02:47;100407.00;;;12.19;69.12
48862;BME280;34681;49.188;-0.374;2022-11-15T01:05:13;100401.22;;;11.96;69.81
48862;BME280;34681;49.188;-0.374;2022-11-15T01:07:38;100402.44;;;11.93;69.94
48862;BME280;34681;49.188;-0.374;2022-11-15T01:10:04;100392.69;;;12.07;69.60
48862;BME280;34681;49.188;-0.374;2022-11-15T01:12:30;100391.16;;;11.78;70.29
48862;BME280;34681;49.188;-0.374;2022-11-15T01:14:55;100379.88;;;12.16;69.20
48862;BME280;34681;49.188;-0.374;2022-11-15T01:17:21;100379.75;;;12.17;68.71
48862;BME280;34681;49.188;-0.374;2022-11-15T01:19:46;100378.94;;;11.99;69.42
48862;BME280;34681;49.188;-0.374;2022-11-15T01:22:11;100372.81;;;12.05;69.62
48862;BME280;34681;49.188;-0.374;2022-11-15T01:24:37;100371.69;;;11.81;70.25
48862;BME280;34681;49.188;-0.374;2022-11-15T01:27:02;100371.50;;;11.83;69.97
48862;BME280;34681;49.188;-0.374;2022-11-15T01:29:28;100367.25;;;11.89;70.25
48862;BME280;34681;49.188;-0.374;2022-11-15T01:31:53;100371.78;;;12.06;69.81
48862;BME280;34681;49.188;-0.374;2022-11-15T01:34:19;100353.97;;;12.02;69.52
48862;BME280;34681;49.188;-0.374;2022-11-15T01:36:44;100354.72;;;12.20;69.17
48862;BME280;34681;49.188;-0.374;2022-11-15T01:39:10;100356.97;;;12.25;69.02
48862;BME280;34681;49.188;-0.374;2022-11-15T01:41:35;100352.31;;;12.17;69.02
48862;BME280;34681;49.188;-0.374;2022-11-15T01:44:39;100336.50;;;12.11;69.16
48862;BME280;34681;49.188;-0.374;2022-11-15T01:47:11;100326.03;;;12.06;69.36
48862;BME280;34681;49.188;-0.374;2022-11-15T01:49:44;100321.34;;;11.91;69.66
48862;BME280;34681;49.188;-0.374;2022-11-15T01:52:15;100323.13;;;11.74;70.04
48862;BME280;34681;49.188;-0.374;2022-11-15T01:54:43;100308.06;;;11.70;70.38
48862;BME280;34681;49.188;-0.374;2022-11-15T01:57:09;100312.94;;;11.58;70.60
48862;BME280;34681;49.188;-0.374;2022-11-15T01:59:38;100307.47;;;11.58;70.56
48862;BME280;34681;49.188;-0.374;2022-11-15T02:02:04;100303.16;;;11.81;69.91
48862;BME280;34681;49.188;-0.374;2022-11-15T02:04:37;100307.53;;;11.74;70.20
48862;BME280;34681;49.188;-0.374;2022-11-15T02:07:05;100284.00;;;11.56;70.47
48862;BME280;34681;49.188;-0.374;2022-11-15T02:09:31;100288.22;;;11.42;71.24
48862;BME280;34681;49.188;-0.374;2022-11-15T02:11:57;100287.97;;;11.61;70.48
48862;BME280;34681;49.188;-0.374;2022-11-15T02:14:25;100279.56;;;11.54;70.67
48862;BME280;34681;49.188;-0.374;2022-11-15T02:17:11;100271.56;;;11.69;70.21
48862;BME280;34681;49.188;-0.374;2022-11-15T02:30:44;100241.84;;;11.91;69.64
48862;BME280;34681;49.188;-0.374;2022-11-15T02:33:36;100246.16;;;11.93;69.34
48862;BME280;34681;49.188;-0.374;2022-11-15T02:36:13;100238.94;;;11.84;69.98
48862;BME280;34681;49.188;-0.374;2022-11-15T02:41:28;100227.06;;;11.75;70.28
48862;BME280;34681;49.188;-0.374;2022-11-15T02:46:59;100208.53;;;11.69;70.30
48862;BME280;34681;49.188;-0.374;2022-11-15T02:49:41;100205.53;;;11.89;70.33
48862;BME280;34681;49.188;-0.374;2022-11-15T02:52:08;100195.13;;;12.00;69.97
48862;BME280;34681;49.188;-0.374;2022-11-15T02:54:35;100187.88;;;11.99;69.78
48862;BME280;34681;49.188;-0.374;2022-11-15T02:57:06;100187.31;;;11.79;70.39
48862;BME280;34681;49.188;-0.374;2022-11-15T03:05:20;100160.63;;;11.90;70.38
48862;BME280;34681;49.188;-0.374;2022-11-15T03:10:57;100165.75;;;11.76;70.67
48862;BME280;34681;49.188;-0.374;2022-11-15T03:16:40;100163.94;;;12.01;70.02
48862;BME280;34681;49.188;-0.374;2022-11-15T03:19:14;100167.00;;;12.15;70.04
48862;BME280;34681;49.188;-0.374;2022-11-15T03:21:41;100162.72;;;12.28;69.70
48862;BME280;34681;49.188;-0.374;2022-11-15T03:24:08;100151.75;;;12.28;69.64
48862;BME280;34681;49.188;-0.374;2022-11-15T03:26:35;100141.13;;;12.01;70.06
48862;BME280;34681;49.188;-0.374;2022-11-15T03:29:13;100137.38;;;12.10;70.11
48862;BME280;34681;49.188;-0.374;2022-11-15T03:31:45;100127.56;;;11.91;70.33
48862;BME280;34681;49.188;-0.374;2022-11-15T03:34:23;100128.09;;;12.19;69.93
48862;BME280;34681;49.188;-0.374;2022-11-15T03:36:51;100122.63;;;12.19;70.17
48862;BME280;34681;49.188;-0.374;2022-11-15T03:39:17;100114.91;;;11.98;70.91
48862;BME280;34681;49.188;-0.374;2022-11-15T03:41:57;100108.22;;;12.17;70.33
48862;BME280;34681;49.188;-0.374;2022-11-15T03:47:25;100095.88;;;12.05;70.84
48862;BME280;34681;49.188;-0.374;2022-11-15T03:49:57;100097.41;;;12.16;70.93
48862;BME280;34681;49.188;-0.374;2022-11-15T03:52:24;100095.84;;;12.37;70.37
48862;BME280;34681;49.188;-0.374;2022-11-15T03:54:52;100080.25;;;12.30;70.60
48862;BME280;34681;49.188;-0.374;2022-11-15T03:57:18;100071.19;;;12.29;71.16
48862;BME280;34681;49.188;-0.374;2022-11-15T03:59:43;100067.69;;;12.60;70.40
48862;BME280;34681;49.188;-0.374;2022-11-15T04:02:09;100067.75;;;12.35;71.14
48862;BME280;34681;49.188;-0.374;2022-11-15T04:04:34;100053.19;;;12.35;71.74
48862;BME280;34681;49.188;-0.374;2022-11-15T04:07:01;100062.41;;;12.50;71.77
48862;BME280;34681;49.188;-0.374;2022-11-15T04:09:26;100062.91;;;12.46;72.17
48862;BME280;34681;49.188;-0.374;2022-11-15T04:11:52;100060.16;;;12.46;72.52
48862;BME280;34681;49.188;-0.374;2022-11-15T04:14:17;100065.97;;;12.59;72.14
48862;BME280;34681;49.188;-0.374;2022-11-15T04:16:42;100053.41;;;12.64;71.90
48862;BME280;34681;49.188;-0.374;2022-11-15T04:19:08;100046.84;;;12.74;71.84
48862;BME280;34681;49.188;-0.374;2022-11-15T04:21:52;100047.72;;;12.74;72.09
48862;BME280;34681;49.188;-0.374;2022-11-15T04:24:36;100039.88;;;12.63;72.22
48862;BME280;34681;49.188;-0.374;2022-11-15T04:27:01;100031.09;;;12.76;71.58
48862;BME280;34681;49.188;-0.374;2022-11-15T04:29:27;100019.41;;;12.74;71.78
48862;BME280;34681;49.188;-0.374;2022-11-15T04:32:03;100020.75;;;12.86;71.58
48862;BME280;34681;49.188;-0.374;2022-11-15T04:34:29;100017.19;;;12.77;71.95
48862;BME280;34681;49.188;-0.374;2022-11-15T04:36:54;100015.09;;;12.79;72.13
48862;BME280;34681;49.188;-0.374;2022-11-15T04:39:39;100018.44;;;12.67;72.10
48862;BME280;34681;49.188;-0.374;2022-11-15T04:42:05;100004.66;;;12.83;72.04
48862;BME280;34681;49.188;-0.374;2022-11-15T04:44:30;100004.84;;;12.73;72.12
48862;BME280;34681;49.188;-0.374;2022-11-15T04:46:56;99996.69;;;12.88;71.56
48862;BME280;34681;49.188;-0.374;2022-11-15T04:49:21;100008.75;;;12.79;72.06
48862;BME280;34681;49.188;-0.374;2022-11-15T04:51:47;100005.22;;;13.01;71.24
48862;BME280;34681;49.188;-0.374;2022-11-15T04:54:13;99996.25;;;13.07;70.99
48862;BME280;34681;49.188;-0.374;2022-11-15T04:56:38;100004.47;;;13.07;71.00
48862;BME280;34681;49.188;-0.374;2022-11-15T04:59:04;99992.50;;;13.08;71.15
48862;BME280;34681;49.188;-0.374;2022-11-15T05:01:29;99981.13;;;13.11;70.77
48862;BME280;34681;49.188;-0.374;2022-11-15T05:03:54;99984.00;;;13.18;70.97
48862;BME280;34681;49.188;-0.374;2022-11-15T05:06:38;99966.47;;;12.96;71.48
48862;BME280;34681;49.188;-0.374;2022-11-15T05:09:04;99962.72;;;12.89;71.70
48862;BME280;34681;49.188;-0.374;2022-11-15T05:11:31;99969.91;;;12.90;72.24
48862;BME280;34681;49.188;-0.374;2022-11-15T05:13:56;99955.91;;;12.85;72.13
48862;BME280;34681;49.188;-0.374;2022-11-15T05:16:22;99954.75;;;13.02;71.84
48862;BME280;34681;49.188;-0.374;2022-11-15T05:18:50;99946.19;;;12.97;72.12
48862;BME280;34681;49.188;-0.374;2022-11-15T05:21:16;99947.53;;;12.78;72.79
48862;BME280;34681;49.188;-0.374;2022-11-15T05:23:41;99948.50;;;12.85;72.89
48862;BME280;34681;49.188;-0.374;2022-11-15T05:26:07;99930.94;;;12.94;72.69
48862;BME280;34681;49.188;-0.374;2022-11-15T05:28:33;99933.41;;;13.12;71.82
48862;BME280;34681;49.188;-0.374;2022-11-15T05:31:04;99929.00;;;13.03;72.06
48862;BME280;34681;49.188;-0.374;2022-11-15T05:33:30;99922.78;;;13.09;72.40
48862;BME280;34681;49.188;-0.374;2022-11-15T05:36:44;99918.50;;;13.07;72.18
48862;BME280;34681;49.188;-0.374;2022-11-15T05:38:45;99927.69;;;12.99;72.42
48862;BME280;34681;49.188;-0.374;2022-11-15T05:41:12;99917.66;;;13.06;72.60
48862;BME280;34681;49.188;-0.374;2022-11-15T05:43:39;99910.31;;;12.99;73.14
48862;BME280;34681;49.188;-0.374;2022-11-15T05:46:05;99910.19;;;12.69;74.57
48862;BME280;34681;49.188;-0.374;2022-11-15T05:48:32;99901.38;;;12.74;74.81
48862;BME280;34681;49.188;-0.374;2022-11-15T05:50:59;99902.75;;;12.78;74.97
48862;BME280;34681;49.188;-0.374;2022-11-15T05:53:25;99895.44;;;12.93;74.77
48862;BME280;34681;49.188;-0.374;2022-11-15T05:55:51;99887.69;;;12.97;74.98
48862;BME280;34681;49.188;-0.374;2022-11-15T05:58:18;99881.41;;;12.88;75.51
48862;BME280;34681;49.188;-0.374;2022-11-15T06:00:44;99869.75;;;13.09;75.17
48862;BME280;34681;49.188;-0.374;2022-11-15T06:03:09;99854.69;;;13.05;75.08
48862;BME280;34681;49.188;-0.374;2022-11-15T06:05:35;99857.34;;;13.13;75.08
48862;BME280;34681;49.188;-0.374;2022-11-15T06:08:01;99831.44;;;12.92;75.44
48862;BME280;34681;49.188;-0.374;2022-11-15T06:10:26;99822.66;;;12.97;75.29
48862;BME280;34681;49.188;-0.374;2022-11-15T06:12:59;99841.38;;;12.93;75.71
48862;BME280;34681;49.188;-0.374;2022-11-15T06:15:25;99831.13;;;12.87;76.20
48862;BME280;34681;49.188;-0.374;2022-11-15T06:17:50;99819.56;;;12.77;76.32
48862;BME280;34681;49.188;-0.374;2022-11-15T06:20:16;99816.44;;;12.80;76.47
48862;BME280;34681;49.188;-0.374;2022-11-15T06:22:41;99822.09;;;13.02;75.83
48862;BME280;34681;49.188;-0.374;2022-11-15T06:25:07;99816.69;;;13.31;75.04
48862;BME280;34681;49.188;-0.374;2022-11-15T06:27:32;99826.06;;;13.22;74.95
48862;BME280;34681;49.188;-0.374;2022-11-15T06:29:57;99822.69;;;13.12;75.74
48862;BME280;34681;49.188;-0.374;2022-11-15T06:32:23;99811.91;;;13.10;76.07
48862;BME280;34681;49.188;-0.374;2022-11-15T06:34:48;99815.88;;;13.08;76.42
48862;BME280;34681;49.188;-0.374;2022-11-15T06:37:13;99807.38;;;13.17;76.36
48862;BME280;34681;49.188;-0.374;2022-11-15T06:39:39;99819.81;;;13.05;77.13
48862;BME280;34681;49.188;-0.374;2022-11-15T06:42:04;99809.34;;;13.09;77.23
48862;BME280;34681;49.188;-0.374;2022-11-15T06:44:30;99810.81;;;13.19;77.40
48862;BME280;34681;49.188;-0.374;2022-11-15T06:46:55;99806.34;;;13.18;77.74
48862;BME280;34681;49.188;-0.374;2022-11-15T06:49:20;99811.13;;;13.25;77.36
48862;BME280;34681;49.188;-0.374;2022-11-15T06:51:45;99817.28;;;13.27;77.99
48862;BME280;34681;49.188;-0.374;2022-11-15T06:54:11;99812.81;;;13.40;77.13
48862;BME280;34681;49.188;-0.374;2022-11-15T06:56:36;99804.78;;;13.24;78.02
48862;BME280;34681;49.188;-0.374;2022-11-15T06:59:02;99803.06;;;13.00;79.25
48862;BME280;34681;49.188;-0.374;2022-11-15T07:04:28;99797.47;;;13.31;78.51
48862;BME280;34681;49.188;-0.374;2022-11-15T07:06:54;99797.31;;;13.33;78.69
48862;BME280;34681;49.188;-0.374;2022-11-15T07:09:19;99786.22;;;13.26;78.46
48862;BME280;34681;49.188;-0.374;2022-11-15T07:11:44;99783.66;;;13.25;78.93
48862;BME280;34681;49.188;-0.374;2022-11-15T07:14:10;99790.38;;;13.37;78.49
48862;BME280;34681;49.188;-0.374;2022-11-15T07:16:36;99779.16;;;13.24;79.00
48862;BME280;34681;49.188;-0.374;2022-11-15T07:19:02;99778.72;;;13.20;79.25
48862;BME280;34681;49.188;-0.374;2022-11-15T07:21:28;99787.41;;;13.24;79.10
48862;BME280;34681;49.188;-0.374;2022-11-15T07:23:53;99789.91;;;13.33;78.83
48862;BME280;34681;49.188;-0.374;2022-11-15T07:26:18;99776.06;;;13.27;79.22
48862;BME280;34681;49.188;-0.374;2022-11-15T07:28:44;99773.03;;;13.21;79.22
48862;BME280;34681;49.188;-0.374;2022-11-15T07:31:09;99778.63;;;13.05;79.65
48862;BME280;34681;49.188;-0.374;2022-11-15T07:33:35;99778.88;;;13.18;79.91
48862;BME280;34681;49.188;-0.374;2022-11-15T07:36:02;99777.84;;;13.19;79.31
48862;BME280;34681;49.188;-0.374;2022-11-15T07:38:28;99771.81;;;13.24;79.31
48862;BME280;34681;49.188;-0.374;2022-11-15T07:40:59;99781.84;;;13.32;78.92
48862;BME280;34681;49.188;-0.374;2022-11-15T07:43:24;99773.25;;;13.12;79.22
48862;BME280;34681;49.188;-0.374;2022-11-15T07:45:50;99777.13;;;13.26;79.28
48862;BME280;34681;49.188;-0.374;2022-11-15T07:48:15;99775.22;;;13.26;78.58
48862;BME280;34681;49.188;-0.374;2022-11-15T07:50:41;99779.09;;;13.32;78.47
48862;BME280;34681;49.188;-0.374;2022-11-15T07:53:08;99766.31;;;13.39;78.09
48862;BME280;34681;49.188;-0.374;2022-11-15T07:55:33;99767.16;;;13.25;77.94
48862;BME280;34681;49.188;-0.374;2022-11-15T07:58:03;99768.28;;;13.30;78.36
48862;BME280;34681;49.188;-0.374;2022-11-15T08:00:30;99772.66;;;13.25;78.43
48862;BME280;34681;49.188;-0.374;2022-11-15T08:03:07;99769.34;;;13.29;78.44
48862;BME280;34681;49.188;-0.374;2022-11-15T08:05:33;99758.66;;;13.34;78.46
48862;BME280;34681;49.188;-0.374;2022-11-15T08:07:58;99759.19;;;13.30;78.33
48862;BME280;34681;49.188;-0.374;2022-11-15T08:10:25;99756.19;;;13.25;78.53
48862;BME280;34681;49.188;-0.374;2022-11-15T08:13:01;99757.03;;;13.25;78.70
48862;BME280;34681;49.188;-0.374;2022-11-15T08:15:27;99751.81;;;13.30;78.80
48862;BME280;34681;49.188;-0.374;2022-11-15T08:17:57;99749.38;;;13.35;78.57
48862;BME280;34681;49.188;-0.374;2022-11-15T08:20:24;99755.00;;;13.19;78.71
48862;BME280;34681;49.188;-0.374;2022-11-15T08:22:50;99741.69;;;13.31;78.58
48862;BME280;34681;49.188;-0.374;2022-11-15T08:25:15;99742.72;;;13.30;78.51
48862;BME280;34681;49.188;-0.374;2022-11-15T08:27:41;99740.91;;;13.22;78.90
48862;BME280;34681;49.188;-0.374;2022-11-15T08:30:06;99736.47;;;13.21;79.00
48862;BME280;34681;49.188;-0.374;2022-11-15T08:32:32;99729.06;;;13.21;79.00
48862;BME280;34681;49.188;-0.374;2022-11-15T08:34:57;99746.13;;;13.32;78.50
48862;BME280;34681;49.188;-0.374;2022-11-15T08:37:23;99745.19;;;13.25;78.92
48862;BME280;34681;49.188;-0.374;2022-11-15T08:39:48;99742.81;;;13.21;78.87
48862;BME280;34681;49.188;-0.374;2022-11-15T08:42:14;99729.06;;;13.21;79.05
48862;BME280;34681;49.188;-0.374;2022-11-15T08:44:41;99745.19;;;13.25;79.02
48862;BME280;34681;49.188;-0.374;2022-11-15T08:47:07;99748.50;;;13.20;79.19
48862;BME280;34681;49.188;-0.374;2022-11-15T08:49:32;99742.91;;;13.28;78.61
48862;BME280;34681;49.188;-0.374;2022-11-15T08:51:57;99741.19;;;13.57;78.02
48862;BME280;34681;49.188;-0.374;2022-11-15T08:54:23;99737.88;;;13.46;77.93
48862;BME280;34681;49.188;-0.374;2022-11-15T08:56:48;99732.97;;;13.42;77.97
48862;BME280;34681;49.188;-0.374;2022-11-15T08:59:14;99731.94;;;13.28;78.56
48862;BME280;34681;49.188;-0.374;2022-11-15T09:01:39;99718.41;;;13.41;78.54
48862;BME280;34681;49.188;-0.374;2022-11-15T09:04:04;99724.34;;;13.30;78.81
48862;BME280;34681;49.188;-0.374;2022-11-15T09:06:30;99717.06;;;13.37;78.56
48862;BME280;34681;49.188;-0.374;2022-11-15T09:08:56;99707.84;;;13.30;78.82
48862;BME280;34681;49.188;-0.374;2022-11-15T09:11:21;99705.22;;;13.52;78.78
48862;BME280;34681;49.188;-0.374;2022-11-15T09:13:49;99692.13;;;13.39;78.37
48862;BME280;34681;49.188;-0.374;2022-11-15T09:16:14;99685.50;;;13.48;78.94
48862;BME280;34681;49.188;-0.374;2022-11-15T09:18:41;99685.88;;;13.60;78.67
48862;BME280;34681;49.188;-0.374;2022-11-15T09:21:07;99662.94;;;13.53;78.47
48862;BME280;34681;49.188;-0.374;2022-11-15T09:23:32;99663.44;;;13.41;78.88
48862;BME280;34681;49.188;-0.374;2022-11-15T09:26:02;99664.28;;;13.42;79.01
48862;BME280;34681;49.188;-0.374;2022-11-15T09:28:28;99652.63;;;13.40;78.92
48862;BME280;34681;49.188;-0.374;2022-11-15T09:31:01;99646.97;;;13.41;78.86
48862;BME280;34681;49.188;-0.374;2022-11-15T09:33:27;99644.28;;;13.48;79.04
48862;BME280;34681;49.188;-0.374;2022-11-15T09:35:53;99625.03;;;13.48;79.00
48862;BME280;34681;49.188;-0.374;2022-11-15T09:38:19;99639.13;;;13.74;78.36
48862;BME280;34681;49.188;-0.374;2022-11-15T09:40:51;99633.25;;;13.63;78.52
48862;BME280;34681;49.188;-0.374;2022-11-15T09:49:13;99606.81;;;13.62;79.52
48862;BME280;34681;49.188;-0.374;2022-11-15T09:51:41;99605.28;;;13.74;79.45
48862;BME280;34681;49.188;-0.374;2022-11-15T09:54:16;99602.72;;;13.72;79.28
48862;BME280;34681;49.188;-0.374;2022-11-15T09:56:44;99601.28;;;13.76;79.31
48862;BME280;34681;49.188;-0.374;2022-11-15T10:04:25;99580.63;;;13.44;81.15
48862;BME280;34681;49.188;-0.374;2022-11-15T10:07:13;99602.31;;;13.39;82.10
48862;BME280;34681;49.188;-0.374;2022-11-15T10:12:27;99608.88;;;13.38;82.73
48862;BME280;34681;49.188;-0.374;2022-11-15T10:15:15;99604.16;;;13.32;83.12
48862;BME280;34681;49.188;-0.374;2022-11-15T10:20:34;99625.78;;;13.57;82.32
48862;BME280;34681;49.188;-0.374;2022-11-15T10:23:11;99622.25;;;13.63;82.27
48862;BME280;34681;49.188;-0.374;2022-11-15T10:25:38;99614.97;;;13.91;81.52
48862;BME280;34681;49.188;-0.374;2022-11-15T10:30:39;99612.88;;;13.93;81.42
48862;BME280;34681;49.188;-0.374;2022-11-15T10:33:13;99595.19;;;14.02;81.05
48862;BME280;34681;49.188;-0.374;2022-11-15T10:35:42;99590.69;;;14.16;80.39
48862;BME280;34681;49.188;-0.374;2022-11-15T10:38:10;99584.19;;;14.24;80.11
48862;BME280;34681;49.188;-0.374;2022-11-15T10:40:36;99580.75;;;14.15;80.25
48862;BME280;34681;49.188;-0.374;2022-11-15T10:43:16;99580.75;;;14.15;80.45
48862;BME280;34681;49.188;-0.374;2022-11-15T10:45:43;99575.47;;;14.20;80.11
48862;BME280;34681;49.188;-0.374;2022-11-15T10:53:16;99563.63;;;14.20;80.42
48862;BME280;34681;49.188;-0.374;2022-11-15T10:55:47;99561.19;;;14.31;80.06
48862;BME280;34681;49.188;-0.374;2022-11-15T11:01:26;99555.91;;;14.09;81.00
48862;BME280;34681;49.188;-0.374;2022-11-15T11:04:03;99541.41;;;14.21;80.64
48862;BME280;34681;49.188;-0.374;2022-11-15T11:06:29;99543.31;;;14.21;80.24
48862;BME280;34681;49.188;-0.374;2022-11-15T11:09:00;99532.47;;;14.41;79.90
48862;BME280;34681;49.188;-0.374;2022-11-15T11:11:50;99521.84;;;14.38;79.60
48862;BME280;34681;49.188;-0.374;2022-11-15T11:14:25;99528.00;;;14.40;79.74
48862;BME280;34681;49.188;-0.374;2022-11-15T11:16:56;99537.47;;;14.30;79.77
48862;BME280;34681;49.188;-0.374;2022-11-15T11:35:45;99522.84;;;14.51;79.54
48862;BME280;34681;49.188;-0.374;2022-11-15T11:38:24;99522.69;;;14.38;80.42
48862;BME280;34681;49.188;-0.374;2022-11-15T11:41:19;99529.31;;;14.44;80.09
48862;BME280;34681;49.188;-0.374;2022-11-15T11:49:12;99514.19;;;14.96;78.47
48862;BME280;34681;49.188;-0.374;2022-11-15T11:51:49;99516.19;;;15.15;77.85
48862;BME280;34681;49.188;-0.374;2022-11-15T11:54:42;99516.13;;;15.02;78.12
48862;BME280;34681;49.188;-0.374;2022-11-15T11:57:21;99510.97;;;14.85;79.08
48862;BME280;34681;49.188;-0.374;2022-11-15T11:59:58;99507.09;;;14.80;79.12
48862;BME280;34681;49.188;-0.374;2022-11-15T12:02:29;99499.34;;;14.90;78.84
48862;BME280;34681;49.188;-0.374;2022-11-15T12:05:32;99488.34;;;14.97;78.38
48862;BME280;34681;49.188;-0.374;2022-11-15T12:08:15;99486.19;;;14.85;78.77
48862;BME280;34681;49.188;-0.374;2022-11-15T12:10:47;99473.94;;;14.95;78.59
48862;BME280;34681;49.188;-0.374;2022-11-15T12:13:19;99472.66;;;14.97;78.43
48862;BME280;34681;49.188;-0.374;2022-11-15T12:15:55;99477.34;;;15.03;78.49
48862;BME280;34681;49.188;-0.374;2022-11-15T12:18:22;99473.75;;;15.03;78.88
48862;BME280;34681;49.188;-0.374;2022-11-15T12:20:53;99465.81;;;15.34;78.00
48862;BME280;34681;49.188;-0.374;2022-11-15T12:23:25;99475.84;;;15.88;76.39
48862;BME280;34681;49.188;-0.374;2022-11-15T12:25:58;99477.78;;;16.08;75.60
48862;BME280;34681;49.188;-0.374;2022-11-15T12:28:38;99476.72;;;16.09;75.36
48862;BME280;34681;49.188;-0.374;2022-11-15T12:33:43;99471.84;;;16.24;74.71
48862;BME280;34681;49.188;-0.374;2022-11-15T12:36:11;99458.91;;;15.98;74.88
48862;BME280;34681;49.188;-0.374;2022-11-15T12:41:33;99462.94;;;15.82;75.69
48862;BME280;34681;49.188;-0.374;2022-11-15T12:44:00;99464.63;;;15.77;75.81
48862;BME280;34681;49.188;-0.374;2022-11-15T12:48:59;99449.00;;;16.68;73.21
48862;BME280;34681;49.188;-0.374;2022-11-15T12:59:55;99446.47;;;16.73;72.52
48862;BME280;34681;49.188;-0.374;2022-11-15T13:04:54;99440.09;;;16.66;72.33
48862;BME280;34681;49.188;-0.374;2022-11-15T13:15:45;99442.72;;;16.21;73.97
48862;BME280;34681;49.188;-0.374;2022-11-15T13:18:33;99424.16;;;16.62;72.97
48862;BME280;34681;49.188;-0.374;2022-11-15T13:21:00;99429.47;;;16.63;73.02
48862;BME280;34681;49.188;-0.374;2022-11-15T13:23:26;99428.59;;;16.82;72.50
48862;BME280;34681;49.188;-0.374;2022-11-15T13:26:14;99425.94;;;17.01;71.66
48862;BME280;34681;49.188;-0.374;2022-11-15T13:28:45;99419.69;;;17.19;71.32
48862;BME280;34681;49.188;-0.374;2022-11-15T13:31:30;99406.31;;;17.16;70.90
48862;BME280;34681;49.188;-0.374;2022-11-15T13:34:03;99400.19;;;17.07;71.04
48862;BME280;34681;49.188;-0.374;2022-11-15T13:36:38;99393.75;;;16.81;71.80
48862;BME280;34681;49.188;-0.374;2022-11-15T13:39:25;99401.00;;;16.76;71.77
48862;BME280;34681;49.188;-0.374;2022-11-15T13:41:51;99392.00;;;16.87;71.52
48862;BME280;34681;49.188;-0.374;2022-11-15T13:44:28;99387.41;;;17.12;70.61
48862;BME280;34681;49.188;-0.374;2022-11-15T13:47:20;99391.00;;;17.45;70.24
48862;BME280;34681;49.188;-0.374;2022-11-15T13:49:46;99387.44;;;17.37;70.25
48862;BME280;34681;49.188;-0.374;2022-11-15T13:52:14;99384.38;;;17.21;70.39
48862;BME280;34681;49.188;-0.374;2022-11-15T13:55:01;99376.03;;;17.27;70.38
48862;BME280;34681;49.188;-0.374;2022-11-15T13:57:44;99380.19;;;17.43;69.64
48862;BME280;34681;49.188;-0.374;2022-11-15T14:00:36;99373.00;;;17.35;69.71
48862;BME280;34681;49.188;-0.374;2022-11-15T14:03:23;99372.28;;;17.22;69.86
48862;BME280;34681;49.188;-0.374;2022-11-15T14:06:11;99374.25;;;17.08;69.87
48862;BME280;34681;49.188;-0.374;2022-11-15T14:08:38;99377.03;;;17.08;70.32
48862;BME280;34681;49.188;-0.374;2022-11-15T14:13:39;99375.72;;;17.10;69.71
48862;BME280;34681;49.188;-0.374;2022-11-15T14:16:19;99366.69;;;16.97;70.10
48862;BME280;34681;49.188;-0.374;2022-11-15T14:18:50;99369.22;;;16.98;70.50
48862;BME280;34681;49.188;-0.374;2022-11-15T14:21:18;99363.72;;;17.30;69.56
48862;BME280;34681;49.188;-0.374;2022-11-15T14:23:44;99372.69;;;17.50;68.92
48862;BME280;34681;49.188;-0.374;2022-11-15T14:26:32;99375.72;;;17.42;69.08
48862;BME280;34681;49.188;-0.374;2022-11-15T14:29:27;99374.88;;;17.10;70.05
48862;BME280;34681;49.188;-0.374;2022-11-15T14:31:54;99380.75;;;16.89;70.58
48862;BME280;34681;49.188;-0.374;2022-11-15T14:34:32;99370.97;;;16.86;70.75
48862;BME280;34681;49.188;-0.374;2022-11-15T14:36:57;99377.66;;;17.10;70.51
48862;BME280;34681;49.188;-0.374;2022-11-15T14:39:23;99372.59;;;17.38;69.77
48862;BME280;34681;49.188;-0.374;2022-11-15T14:41:50;99369.50;;;17.22;69.23
48862;BME280;34681;49.188;-0.374;2022-11-15T14:44:15;99368.22;;;16.86;70.32
48862;BME280;34681;49.188;-0.374;2022-11-15T14:46:43;99373.97;;;16.84;70.54
48862;BME280;34681;49.188;-0.374;2022-11-15T14:49:09;99376.38;;;16.74;70.47
48862;BME280;34681;49.188;-0.374;2022-11-15T14:51:34;99369.53;;;16.77;70.70
48862;BME280;34681;49.188;-0.374;2022-11-15T14:54:00;99370.22;;;16.66;71.18